createdAt,value
2023-02-03T00:01:36.495Z,100670.95
2023-02-03T00:04:22.996Z,100674.83
2023-02-03T00:07:12.542Z,100678.35
2023-02-03T00:09:59.142Z,100673.23
2023-02-03T00:12:45.528Z,100679.17
2023-02-03T00:15:32.153Z,100678.38
2023-02-03T00:18:18.469Z,100673.80
2023-02-03T00:21:05.925Z,100668.28
2023-02-03T00:23:54.748Z,100671.48
2023-02-03T00:26:43.055Z,100677.89
2023-02-03T00:29:30.587Z,100682.02
2023-02-03T00:32:17.270Z,100682.45
2023-02-03T00:35:05.175Z,100681.24
2023-02-03T00:37:53.499Z,100680.40
2023-02-03T00:40:40.116Z,100680.67
2023-02-03T00:43:26.823Z,100679.38
2023-02-03T00:46:13.955Z,100684.09
2023-02-03T00:49:00.925Z,100681.23
2023-02-03T00:51:47.537Z,100680.36
2023-02-03T00:54:34.166Z,100686.05
2023-02-03T00:57:20.946Z,100690.38
2023-02-03T01:00:07.998Z,100695.75
2023-02-03T01:02:54.785Z,100695.77
2023-02-03T01:05:41.458Z,100692.33
2023-02-03T01:08:28.032Z,100696.07
2023-02-03T01:11:20.445Z,100694.73
2023-02-03T01:14:07.618Z,100697.84
2023-02-03T01:16:54.385Z,100701.83
2023-02-03T01:19:40.882Z,100705.83
2023-02-03T01:22:30.301Z,100701.28
2023-02-03T01:25:17.226Z,100706.73
2023-02-03T01:28:06.150Z,100705.94
2023-02-03T01:30:53.050Z,100702.95
2023-02-03T01:33:46.270Z,100699.11
2023-02-03T01:36:35.341Z,100700.14
2023-02-03T01:39:23.934Z,100705.70
2023-02-03T01:42:15.141Z,100704.67
2023-02-03T01:45:01.753Z,100708.55
2023-02-03T01:47:55.742Z,100705.18
2023-02-03T01:50:42.220Z,100700.01
2023-02-03T01:53:28.638Z,100698.86
2023-02-03T01:56:15.922Z,100693.96
2023-02-03T01:59:03.014Z,100687.48
2023-02-03T02:01:54.048Z,100690.45
2023-02-03T02:05:00.240Z,100691.77
2023-02-03T02:07:48.411Z,100690.26
2023-02-03T02:10:35.368Z,100693.95
2023-02-03T02:13:23.177Z,100691.79
2023-02-03T02:17:06.568Z,100689.77
2023-02-03T02:20:28.905Z,100687.27
2023-02-03T02:23:30.644Z,100685.02
2023-02-03T02:26:20.123Z,100675.14
2023-02-03T02:29:35.368Z,100672.33
2023-02-03T02:32:36.525Z,100672.25
2023-02-03T02:35:36.185Z,100671.19
2023-02-03T02:38:46.609Z,100681.77
2023-02-03T02:41:46.006Z,100682.46
2023-02-03T02:44:41.800Z,100673.87
2023-02-03T02:47:28.710Z,100666.55
2023-02-03T02:50:24.207Z,100670.02
2023-02-03T02:53:12.118Z,100663.89
2023-02-03T02:56:00.456Z,100671.17
2023-02-03T02:58:50.893Z,100671.05
2023-02-03T03:01:38.012Z,100662.64
2023-02-03T03:04:27.946Z,100662.14
2023-02-03T03:07:19.861Z,100667.39
2023-02-03T03:10:11.604Z,100667.06
2023-02-03T03:13:05.314Z,100669.54
2023-02-03T03:15:53.731Z,100669.08
2023-02-03T03:18:46.732Z,100669.42
2023-02-03T03:21:38.737Z,100670.85
2023-02-03T03:24:31.749Z,100669.87
2023-02-03T03:27:23.654Z,100665.30
2023-02-03T03:30:27.532Z,100673.01
2023-02-03T03:33:14.381Z,100670.36
2023-02-03T03:36:23.567Z,100673.64
2023-02-03T03:39:24.813Z,100666.50
2023-02-03T03:42:21.021Z,100664.67
2023-02-03T03:45:32.428Z,100659.67
2023-02-03T03:48:18.962Z,100658.75
2023-02-03T03:51:15.620Z,100654.33
2023-02-03T03:54:07.840Z,100649.76
2023-02-03T03:57:06.826Z,100648.89
2023-02-03T03:59:54.865Z,100657.61
2023-02-03T04:02:46.523Z,100658.48
2023-02-03T04:05:34.771Z,100657.67
2023-02-03T04:08:21.466Z,100659.38
2023-02-03T04:11:08.618Z,100659.16
2023-02-03T04:13:55.417Z,100662.50
2023-02-03T04:16:42.125Z,100656.14
2023-02-03T04:19:28.833Z,100655.18
2023-02-03T04:22:15.330Z,100654.96
2023-02-03T04:25:02.085Z,100654.50
2023-02-03T04:27:49.804Z,100655.86
2023-02-03T04:30:36.369Z,100652.63
2023-02-03T04:33:22.989Z,100650.39
2023-02-03T04:36:09.529Z,100654.45
2023-02-03T04:38:56.160Z,100652.73
2023-02-03T04:41:44.237Z,100657.63
2023-02-03T04:44:30.983Z,100661.95
2023-02-03T04:47:19.076Z,100655.52
2023-02-03T04:50:06.253Z,100657.39
2023-02-03T04:52:52.776Z,100657.36
2023-02-03T04:55:39.564Z,100652.00
2023-02-03T04:58:27.143Z,100649.91
2023-02-03T05:01:13.711Z,100644.70
2023-02-03T05:04:00.225Z,100647.81
2023-02-03T05:06:46.900Z,100639.09
2023-02-03T05:09:33.778Z,100629.89
2023-02-03T05:12:20.651Z,100630.34
2023-02-03T05:15:09.057Z,100630.76
2023-02-03T05:17:56.370Z,100628.99
2023-02-03T05:20:42.683Z,100629.00
2023-02-03T05:23:29.725Z,100624.48
2023-02-03T05:26:16.450Z,100627.06
2023-02-03T05:29:03.827Z,100628.48
2023-02-03T05:31:50.465Z,100625.31
2023-02-03T05:34:37.020Z,100622.00
2023-02-03T05:37:23.759Z,100630.15
2023-02-03T05:40:29.770Z,100627.71
2023-02-03T05:43:16.671Z,100619.10
2023-02-03T05:46:05.384Z,100617.55
2023-02-03T05:48:51.981Z,100618.18
2023-02-03T05:51:39.464Z,100616.77
2023-02-03T05:54:26.252Z,100618.34
2023-02-03T05:57:13.536Z,100621.62
2023-02-03T05:59:59.957Z,100618.23
2023-02-03T06:02:58.115Z,100614.63
2023-02-03T06:05:45.037Z,100613.55
2023-02-03T06:08:31.779Z,100605.76
2023-02-03T06:11:18.211Z,100606.59
2023-02-03T06:14:04.954Z,100603.75
2023-02-03T06:16:51.562Z,100602.05
2023-02-03T06:19:38.207Z,100598.16
2023-02-03T06:22:24.576Z,100593.81
2023-02-03T06:25:13.151Z,100594.48
2023-02-03T06:28:00.438Z,100592.80
2023-02-03T06:30:50.320Z,100590.13
2023-02-03T06:33:36.903Z,100584.30
2023-02-03T06:36:23.789Z,100585.43
2023-02-03T06:39:10.578Z,100581.36
2023-02-03T06:41:57.120Z,100574.52
2023-02-03T06:44:44.406Z,100568.87
2023-02-03T06:47:30.816Z,100565.44
2023-02-03T06:50:17.329Z,100561.29
2023-02-03T06:53:04.241Z,100554.98
2023-02-03T06:55:50.766Z,100550.02
2023-02-03T06:58:37.271Z,100540.91
2023-02-03T07:01:23.837Z,100540.84
2023-02-03T07:04:10.353Z,100546.48
2023-02-03T07:06:57.740Z,100539.60
2023-02-03T07:09:44.074Z,100530.89
2023-02-03T07:12:31.669Z,100528.96
2023-02-03T07:15:18.923Z,100523.86
2023-02-03T07:18:05.720Z,100514.48
2023-02-03T07:20:53.578Z,100510.72
2023-02-03T07:23:40.506Z,100508.59
2023-02-03T07:26:27.091Z,100503.71
2023-02-03T07:29:14.029Z,100503.64
2023-02-03T07:32:02.642Z,100502.11
2023-02-03T07:34:49.221Z,100495.98
2023-02-03T07:37:36.130Z,100494.81
2023-02-03T07:40:22.489Z,100492.14
2023-02-03T07:43:09.065Z,100490.66
2023-02-03T07:45:55.840Z,100486.15
2023-02-03T07:48:42.673Z,100482.55
2023-02-03T07:51:29.102Z,100478.61
2023-02-03T07:54:15.595Z,100471.64
2023-02-03T07:57:03.371Z,100463.06
2023-02-03T07:59:50.046Z,100458.89
2023-02-03T08:02:36.790Z,100454.27
2023-02-03T08:05:23.384Z,100452.91
2023-02-03T08:08:09.920Z,100449.77
2023-02-03T08:10:56.897Z,100445.65
2023-02-03T08:13:43.525Z,100435.81
2023-02-03T08:16:30.144Z,100429.50
2023-02-03T08:19:16.548Z,100423.54
2023-02-03T08:22:03.357Z,100424.00
2023-02-03T08:24:56.371Z,100423.69
2023-02-03T08:27:43.262Z,100428.45
2023-02-03T08:30:30.542Z,100424.29
2023-02-03T08:33:17.429Z,100419.54
2023-02-03T08:36:05.913Z,100415.01
2023-02-03T08:38:52.355Z,100408.54
2023-02-03T08:41:39.151Z,100403.02
2023-02-03T08:44:25.670Z,100398.80
2023-02-03T08:47:12.736Z,100393.67
2023-02-03T08:49:59.425Z,100388.83
2023-02-03T08:52:46.079Z,100376.00
2023-02-03T08:55:32.786Z,100376.95
2023-02-03T08:58:19.680Z,100369.80
2023-02-03T09:01:08.760Z,100371.59
2023-02-03T09:03:55.127Z,100362.52
2023-02-03T09:06:41.877Z,100360.45
2023-02-03T09:09:29.117Z,100353.89
2023-02-03T09:12:16.264Z,100346.08
2023-02-03T09:15:02.820Z,100333.08
2023-02-03T09:17:49.565Z,100328.42
2023-02-03T09:20:36.288Z,100325.70
2023-02-03T09:23:23.110Z,100323.32
2023-02-03T09:26:12.551Z,100317.61
2023-02-03T09:28:59.111Z,100316.25
2023-02-03T09:31:48.358Z,100309.31
2023-02-03T09:34:35.154Z,100308.92
2023-02-03T09:37:22.945Z,100300.04
2023-02-03T09:40:18.815Z,100292.77
2023-02-03T09:43:15.387Z,100286.48
2023-02-03T09:46:16.245Z,100284.10
2023-02-03T09:49:12.036Z,100277.63
2023-02-03T09:52:22.901Z,100273.40
2023-02-03T09:55:33.403Z,100262.63
2023-02-03T09:58:23.248Z,100247.99
2023-02-03T10:01:13.989Z,100236.31
2023-02-03T10:04:03.651Z,100232.42
2023-02-03T10:06:53.494Z,100230.27
2023-02-03T10:10:05.175Z,100222.39
2023-02-03T10:13:31.647Z,100211.52
2023-02-03T10:16:30.887Z,100201.78
2023-02-03T10:19:22.257Z,100193.11
2023-02-03T10:22:31.280Z,100188.95
2023-02-03T10:25:31.919Z,100181.62
2023-02-03T10:28:21.136Z,100176.16
2023-02-03T10:31:19.432Z,100168.44
2023-02-03T10:34:17.142Z,100165.51
2023-02-03T10:37:18.768Z,100158.56
2023-02-03T10:40:05.599Z,100148.76
2023-02-03T10:43:11.458Z,100141.17
2023-02-03T10:45:59.079Z,100138.42
2023-02-03T10:48:45.425Z,100123.67
2023-02-03T10:51:46.888Z,100110.30
2023-02-03T10:54:36.369Z,100104.58
2023-02-03T10:57:23.253Z,100094.67
2023-02-03T11:00:24.457Z,100084.13
2023-02-03T11:03:11.094Z,100071.65
2023-02-03T11:06:07.044Z,100058.23
2023-02-03T11:08:54.163Z,100045.83
2023-02-03T11:11:42.024Z,100036.75
2023-02-03T11:14:37.327Z,100025.66
2023-02-03T11:17:30.923Z,100013.38
2023-02-03T11:20:18.109Z,100001.84
2023-02-03T11:23:05.572Z,99994.27
2023-02-03T11:25:52.479Z,99996.70
2023-02-03T11:28:46.011Z,99978.66
2023-02-03T11:31:36.297Z,99970.04
2023-02-03T11:34:31.262Z,99960.91
2023-02-03T11:37:39.959Z,99948.70
2023-02-03T11:40:34.192Z,99938.86
2023-02-03T11:43:23.188Z,99923.70
2023-02-03T11:46:10.069Z,99911.08
2023-02-03T11:49:08.068Z,99905.09
2023-02-03T11:52:26.090Z,99895.27
2023-02-03T11:55:41.320Z,99888.44
2023-02-03T11:58:48.361Z,99880.54
2023-02-03T12:01:59.013Z,99872.17
2023-02-03T12:05:04.249Z,99864.82
2023-02-03T12:08:13.739Z,99857.23
2023-02-03T12:11:13.503Z,99848.92
2023-02-03T12:14:14.070Z,99845.41
2023-02-03T12:17:11.749Z,99842.39
2023-02-03T12:20:05.829Z,99842.30
2023-02-03T12:23:08.916Z,99833.03
2023-02-03T12:26:16.616Z,99821.19
2023-02-03T12:29:21.420Z,99813.61
2023-02-03T12:32:32.166Z,99803.03
2023-02-03T12:35:25.381Z,99805.20
2023-02-03T12:38:30.675Z,99793.02
2023-02-03T12:41:22.873Z,99792.52
2023-02-03T12:44:19.769Z,99783.14
2023-02-03T12:47:35.369Z,99775.61
2023-02-03T12:50:28.150Z,99765.76
2023-02-03T12:53:17.274Z,99759.44
2023-02-03T12:56:10.776Z,99747.52
2023-02-03T12:59:05.723Z,99744.95
2023-02-03T13:01:58.705Z,99724.81
2023-02-03T13:04:56.023Z,99711.59
2023-02-03T13:07:50.975Z,99698.03
2023-02-03T13:10:48.830Z,99687.40
2023-02-03T13:13:42.707Z,99676.42
2023-02-03T13:16:36.008Z,99675.14
2023-02-03T13:19:29.311Z,99656.73
2023-02-03T13:22:17.440Z,99652.36
2023-02-03T13:25:13.305Z,99638.79
2023-02-03T13:28:34.808Z,99628.54
2023-02-03T13:31:43.749Z,99619.29
2023-02-03T13:34:57.935Z,99613.08
2023-02-03T13:38:03.146Z,99606.71
2023-02-03T13:41:04.646Z,99592.08
2023-02-03T13:43:52.814Z,99581.23
2023-02-03T13:46:40.425Z,99574.02
2023-02-03T13:49:37.304Z,99559.75
2023-02-03T13:52:56.287Z,99554.41
2023-02-03T13:55:53.480Z,99551.84
2023-02-03T13:58:40.109Z,99548.13
2023-02-03T14:01:45.890Z,99540.85
2023-02-03T14:04:54.052Z,99534.54
2023-02-03T14:07:42.027Z,99528.73
2023-02-03T14:10:28.769Z,99521.41
2023-02-03T14:13:23.664Z,99512.45
2023-02-03T14:16:24.039Z,99509.54
2023-02-03T14:19:22.803Z,99503.77
2023-02-03T14:22:17.401Z,99499.82
2023-02-03T14:25:06.951Z,99493.28
2023-02-03T14:28:08.908Z,99491.60
2023-02-03T14:31:10.475Z,99480.61
2023-02-03T14:34:05.918Z,99475.02
2023-02-03T14:36:55.386Z,99473.34
2023-02-03T14:40:18.982Z,99464.20
2023-02-03T14:43:26.946Z,99455.63
2023-02-03T14:46:35.502Z,99447.83
2023-02-03T14:49:30.368Z,99448.64
2023-02-03T14:52:41.163Z,99447.70
2023-02-03T14:55:50.873Z,99444.19
2023-02-03T14:58:48.421Z,99435.94
2023-02-03T15:01:38.023Z,99434.65
2023-02-03T15:04:25.026Z,99430.15
2023-02-03T15:07:38.195Z,99426.04
2023-02-03T15:10:46.148Z,99419.87
2023-02-03T15:13:32.598Z,99415.02
2023-02-03T15:16:21.051Z,99409.92
2023-02-03T15:19:19.644Z,99403.79
2023-02-03T15:22:24.182Z,99399.48
2023-02-03T15:25:18.508Z,99394.91
2023-02-03T15:28:21.646Z,99393.86
2023-02-03T15:31:18.918Z,99385.77
2023-02-03T15:34:28.201Z,99388.06
2023-02-03T15:41:36.984Z,99378.04
2023-02-03T15:44:41.330Z,99370.48
2023-02-03T15:47:33.657Z,99368.11
2023-02-03T15:54:46.074Z,99352.35
2023-02-03T15:57:37.225Z,99354.30
2023-02-03T16:00:30.780Z,99348.52
2023-02-03T16:07:46.866Z,99331.96
2023-02-03T16:10:49.005Z,99326.95
2023-02-03T16:13:36.002Z,99324.52
2023-02-03T16:16:39.922Z,99322.76
2023-02-03T16:19:28.992Z,99321.63
2023-02-03T16:22:35.795Z,99310.70
2023-02-03T16:25:24.634Z,99305.16
2023-02-03T16:28:32.196Z,99300.83
2023-02-03T16:31:40.234Z,99298.48
2023-02-03T16:34:45.409Z,99293.63
2023-02-03T16:38:03.029Z,99290.40
2023-02-03T16:41:08.463Z,99288.84
2023-02-03T16:44:13.534Z,99283.02
2023-02-03T16:47:18.469Z,99273.64
2023-02-03T16:50:36.452Z,99269.02
2023-02-03T16:53:30.712Z,99274.24
2023-02-03T16:56:18.959Z,99269.38
2023-02-03T16:59:05.755Z,99266.91
2023-02-03T17:01:54.050Z,99267.52
2023-02-03T17:04:41.496Z,99267.11
2023-02-03T17:07:28.075Z,99269.35
2023-02-03T17:10:14.756Z,99276.48
2023-02-03T17:13:01.351Z,99270.64
2023-02-03T17:15:50.066Z,99262.52
2023-02-03T17:18:36.570Z,99264.98
2023-02-03T17:21:26.473Z,99264.64
2023-02-03T17:24:14.561Z,99262.18
2023-02-03T17:27:01.407Z,99261.66
2023-02-03T17:29:48.056Z,99260.05
2023-02-03T17:32:34.464Z,99260.28
2023-02-03T17:35:21.233Z,99270.45
2023-02-03T17:38:11.022Z,99274.43
2023-02-03T17:56:10.041Z,99291.14
2023-02-03T17:58:58.454Z,99294.23
2023-02-03T18:01:46.818Z,99295.38
2023-02-03T18:04:33.100Z,99286.92
2023-02-03T18:07:19.627Z,99285.55
2023-02-03T18:10:06.265Z,99283.52
2023-02-03T18:12:52.846Z,99283.07
2023-02-03T18:15:39.560Z,99284.40
2023-02-03T18:18:28.610Z,99293.41
2023-02-03T18:21:16.449Z,99296.56
2023-02-03T18:24:04.158Z,99301.17
2023-02-03T18:26:52.024Z,99301.42
2023-02-03T18:29:40.889Z,99308.52
2023-02-03T18:32:27.638Z,99300.71
2023-02-03T18:35:16.976Z,99299.30
2023-02-03T18:38:03.733Z,99305.59
2023-02-03T18:40:50.376Z,99313.73
2023-02-03T18:43:37.167Z,99319.48
2023-02-03T18:46:28.098Z,99320.41
2023-02-03T18:49:14.826Z,99325.99
2023-02-03T18:52:03.470Z,99328.14
2023-02-03T18:54:51.634Z,99334.05
2023-02-03T18:57:37.831Z,99342.80
2023-02-03T19:00:24.848Z,99342.89
2023-02-03T19:03:11.316Z,99337.56
2023-02-03T19:13:40.882Z,99330.35
2023-02-03T19:17:08.955Z,99333.29
2023-02-03T19:20:49.493Z,99334.13
2023-02-03T19:27:49.847Z,99341.02
2023-02-03T19:31:00.051Z,99341.76
2023-02-03T19:34:25.715Z,99338.16
2023-02-03T19:37:29.384Z,99342.52
2023-02-03T19:43:52.264Z,99333.56
2023-02-03T19:54:33.052Z,99348.63
2023-02-03T19:57:51.539Z,99346.21
2023-02-03T20:00:37.996Z,99344.25
2023-02-03T20:03:29.394Z,99346.22
2023-02-03T20:06:17.209Z,99357.86
2023-02-03T20:09:03.613Z,99371.39
2023-02-03T20:11:48.611Z,99366.76
2023-02-03T20:14:33.914Z,99359.75
2023-02-03T20:17:19.346Z,99365.80
2023-02-03T20:20:05.087Z,99376.16
2023-02-03T20:22:51.529Z,99379.61
2023-02-03T20:25:37.716Z,99375.09
2023-02-03T20:28:24.819Z,99377.76
2023-02-03T20:31:09.912Z,99381.42
2023-02-03T20:33:55.038Z,99387.05
2023-02-03T20:40:28.147Z,99409.32
2023-02-03T20:43:19.180Z,99419.48
2023-02-03T20:46:12.802Z,99422.17
2023-02-03T20:48:58.218Z,99414.48
2023-02-03T20:51:43.512Z,99415.66
2023-02-03T20:54:52.614Z,99418.67
2023-02-03T20:57:39.482Z,99418.48
2023-02-03T21:00:39.576Z,99414.13
2023-02-03T21:03:49.750Z,99415.79
2023-02-03T21:06:35.054Z,99414.06
2023-02-03T21:09:23.711Z,99414.05
2023-02-03T21:12:11.646Z,99418.92
2023-02-03T21:14:59.631Z,99426.09
2023-02-03T21:17:44.993Z,99436.98
2023-02-03T21:20:33.239Z,99444.35
2023-02-03T21:23:21.956Z,99444.73
2023-02-03T21:26:27.160Z,99448.23
2023-02-03T21:29:36.179Z,99457.27
2023-02-03T21:32:22.759Z,99463.92
2023-02-03T21:47:57.021Z,99484.83
2023-02-03T21:50:56.524Z,99484.06
2023-02-03T21:54:23.708Z,99485.31
2023-02-03T21:57:18.957Z,99494.80
2023-02-03T22:00:43.452Z,99504.61
2023-02-03T22:03:36.457Z,99504.58
2023-02-03T22:06:56.709Z,99512.77
2023-02-03T22:09:44.056Z,99516.70
2023-02-03T22:12:30.890Z,99521.15
2023-02-03T22:15:17.409Z,99522.23
2023-02-03T22:18:04.189Z,99525.80
2023-02-03T22:20:53.676Z,99528.44
2023-02-03T22:23:40.803Z,99527.31
2023-02-03T22:26:27.504Z,99528.68
2023-02-03T22:29:14.094Z,99540.23
2023-02-03T22:32:01.052Z,99555.37
2023-02-03T22:35:56.925Z,99565.13
2023-02-03T22:39:52.363Z,99564.39
2023-02-03T22:42:39.541Z,99558.83
2023-02-03T22:45:26.282Z,99558.00
2023-02-03T22:48:13.343Z,99562.69
2023-02-03T22:51:00.776Z,99570.00
2023-02-03T22:54:01.078Z,99575.94
2023-02-03T22:58:00.502Z,99585.20
2023-02-03T23:02:15.788Z,99585.42
2023-02-03T23:05:33.439Z,99580.36
2023-02-03T23:09:28.886Z,99586.05
2023-02-03T23:13:29.926Z,99589.77
2023-02-03T23:17:03.669Z,99595.13
2023-02-03T23:20:58.574Z,99602.10
2023-02-03T23:24:56.741Z,99617.02
2023-02-03T23:27:43.382Z,99622.92
2023-02-03T23:30:30.607Z,99636.73
2023-02-03T23:33:17.366Z,99649.23
2023-02-03T23:36:03.841Z,99660.23
2023-02-03T23:38:50.557Z,99669.66
2023-02-03T23:41:47.683Z,99679.80
2023-02-03T23:45:42.834Z,99684.65
2023-02-03T23:49:40.155Z,99698.58
